sensor_id;sensor_type;location;lat;lon;timestamp;pressure;altitude;pressure_sealevel;temperature;humidity
68193;BME280;55012;47.562;18.414;2023-04-06T00:01:33;99774.13;;;-0.44;100.00
68193;BME280;55012;47.562;18.414;2023-04-06T00:03:59;99773.56;;;-0.46;100.00
68193;BME280;55012;47.562;18.414;2023-04-06T00:06:24;99781.28;;;-0.45;100.00
68193;BME280;55012;47.562;18.414;2023-04-06T00:08:50;99778.09;;;-0.47;100.00
68193;BME280;55012;47.562;18.414;2023-04-06T00:11:15;99778.84;;;-0.51;100.00
68193;BME280;55012;47.562;18.414;2023-04-06T00:13:42;99779.09;;;-0.58;100.00
68193;BME280;55012;47.562;18.414;2023-04-06T00:16:07;99780.66;;;-0.62;100.00
68193;BME280;55012;47.562;18.414;2023-04-06T00:18:33;99789.97;;;-0.60;100.00
68193;BME280;55012;47.562;18.414;2023-04-06T00:21:01;99787.31;;;-0.60;100.00
68193;BME280;55012;47.562;18.414;2023-04-06T00:23:27;99784.66;;;-0.60;100.00
68193;BME280;55012;47.562;18.414;2023-04-06T00:25:52;99788.13;;;-0.59;100.00
68193;BME280;55012;47.562;18.414;2023-04-06T00:28:18;99782.53;;;-0.63;100.00
68193;BME280;55012;47.562;18.414;2023-04-06T00:30:50;99784.66;;;-0.60;100.00
68193;BME280;55012;47.562;18.414;2023-04-06T00:33:17;99796.88;;;-0.59;100.00
68193;BME280;55012;47.562;18.414;2023-04-06T00:35:42;99785.22;;;-0.58;100.00
68193;BME280;55012;47.562;18.414;2023-04-06T00:38:08;99783.06;;;-0.61;100.00
68193;BME280;55012;47.562;18.414;2023-04-06T00:40:33;99793.69;;;-0.61;100.00
68193;BME280;55012;47.562;18.414;2023-04-06T00:43:00;99784.38;;;-0.63;100.00
68193;BME280;55012;47.562;18.414;2023-04-06T00:45:25;99795.78;;;-0.68;100.00
68193;BME280;55012;47.562;18.414;2023-04-06T00:47:51;99791.78;;;-0.70;100.00
68193;BME280;55012;47.562;18.414;2023-04-06T00:50:17;99789.38;;;-0.72;100.00
68193;BME280;55012;47.562;18.414;2023-04-06T00:52:42;99797.34;;;-0.72;100.00
68193;BME280;55012;47.562;18.414;2023-04-06T00:55:08;99798.41;;;-0.73;100.00
68193;BME280;55012;47.562;18.414;2023-04-06T00:57:33;99798.69;;;-0.74;100.00
68193;BME280;55012;47.562;18.414;2023-04-06T00:59:59;99793.38;;;-0.74;100.00
68193;BME280;55012;47.562;18.414;2023-04-06T01:02:25;99796.25;;;-0.76;100.00
68193;BME280;55012;47.562;18.414;2023-04-06T01:04:52;99796.50;;;-0.77;100.00
68193;BME280;55012;47.562;18.414;2023-04-06T01:07:18;99797.31;;;-0.82;100.00
68193;BME280;55012;47.562;18.414;2023-04-06T01:09:43;99794.59;;;-0.87;100.00
68193;BME280;55012;47.562;18.414;2023-04-06T01:12:09;99797.78;;;-0.90;100.00
68193;BME280;55012;47.562;18.414;2023-04-06T01:14:34;99804.13;;;-0.91;100.00
68193;BME280;55012;47.562;18.414;2023-04-06T01:17:00;99808.88;;;-0.93;100.00
68193;BME280;55012;47.562;18.414;2023-04-06T01:19:26;99806.50;;;-0.95;100.00
68193;BME280;55012;47.562;18.414;2023-04-06T01:21:52;99807.56;;;-0.96;100.00
68193;BME280;55012;47.562;18.414;2023-04-06T01:24:18;99806.22;;;-0.98;100.00
68193;BME280;55012;47.562;18.414;2023-04-06T01:26:44;99808.06;;;-0.99;100.00
68193;BME280;55012;47.562;18.414;2023-04-06T01:29:11;99810.41;;;-1.02;100.00
68193;BME280;55012;47.562;18.414;2023-04-06T01:31:37;99810.41;;;-1.07;100.00
68193;BME280;55012;47.562;18.414;2023-04-06T01:34:02;99807.44;;;-1.11;100.00
68193;BME280;55012;47.562;18.414;2023-04-06T01:36:28;99809.84;;;-1.09;100.00
68193;BME280;55012;47.562;18.414;2023-04-06T01:38:54;99799.47;;;-1.11;100.00
68193;BME280;55012;47.562;18.414;2023-04-06T01:41:19;99811.41;;;-1.14;100.00
68193;BME280;55012;47.562;18.414;2023-04-06T01:43:46;99811.66;;;-1.15;100.00
68193;BME280;55012;47.562;18.414;2023-04-06T01:46:12;99812.16;;;-1.18;100.00
68193;BME280;55012;47.562;18.414;2023-04-06T01:48:37;99815.06;;;-1.20;100.00
68193;BME280;55012;47.562;18.414;2023-04-06T01:51:03;99813.72;;;-1.22;100.00
68193;BME280;55012;47.562;18.414;2023-04-06T01:53:29;99812.63;;;-1.26;100.00
68193;BME280;55012;47.562;18.414;2023-04-06T01:55:54;99811.53;;;-1.30;100.00
68193;BME280;55012;47.562;18.414;2023-04-06T01:58:20;99816.84;;;-1.30;100.00
68193;BME280;55012;47.562;18.414;2023-04-06T02:00:45;99816.53;;;-1.34;100.00
68193;BME280;55012;47.562;18.414;2023-04-06T02:03:10;99814.94;;;-1.35;100.00
68193;BME280;55012;47.562;18.414;2023-04-06T02:05:36;99812.28;;;-1.35;100.00
68193;BME280;55012;47.562;18.414;2023-04-06T02:08:06;99818.63;;;-1.36;100.00
68193;BME280;55012;47.562;18.414;2023-04-06T02:10:32;99817.03;;;-1.37;100.00
68193;BME280;55012;47.562;18.414;2023-04-06T02:12:58;99817.84;;;-1.36;100.00
68193;BME280;55012;47.562;18.414;2023-04-06T02:15:23;99818.34;;;-1.39;100.00
68193;BME280;55012;47.562;18.414;2023-04-06T02:17:49;99822.28;;;-1.42;100.00
68193;BME280;55012;47.562;18.414;2023-04-06T02:20:14;99829.47;;;-1.43;100.00
68193;BME280;55012;47.562;18.414;2023-04-06T02:22:40;99804.78;;;-1.43;100.00
68193;BME280;55012;47.562;18.414;2023-04-06T02:25:06;99820.41;;;-1.47;100.00
68193;BME280;55012;47.562;18.414;2023-04-06T02:27:31;99819.25;;;-1.56;100.00
68193;BME280;55012;47.562;18.414;2023-04-06T02:29:57;99811.50;;;-1.62;100.00
68193;BME280;55012;47.562;18.414;2023-04-06T02:32:22;99813.09;;;-1.61;100.00
68193;BME280;55012;47.562;18.414;2023-04-06T02:34:48;99804.84;;;-1.65;100.00
68193;BME280;55012;47.562;18.414;2023-04-06T02:37:13;99808.53;;;-1.66;100.00
68193;BME280;55012;47.562;18.414;2023-04-06T02:39:38;99806.63;;;-1.71;100.00
68193;BME280;55012;47.562;18.414;2023-04-06T02:42:04;99800.88;;;-1.62;100.00
68193;BME280;55012;47.562;18.414;2023-04-06T02:44:30;99793.47;;;-1.60;100.00
68193;BME280;55012;47.562;18.414;2023-04-06T02:46:55;99790.56;;;-1.59;100.00
68193;BME280;55012;47.562;18.414;2023-04-06T02:49:20;99787.66;;;-1.57;100.00
68193;BME280;55012;47.562;18.414;2023-04-06T02:51:46;99784.78;;;-1.56;100.00
68193;BME280;55012;47.562;18.414;2023-04-06T02:54:11;99776.81;;;-1.56;100.00
68193;BME280;55012;47.562;18.414;2023-04-06T02:56:37;99772.31;;;-1.55;100.00
68193;BME280;55012;47.562;18.414;2023-04-06T02:59:02;99776.81;;;-1.56;100.00
68193;BME280;55012;47.562;18.414;2023-04-06T03:01:28;99764.59;;;-1.57;100.00
68193;BME280;55012;47.562;18.414;2023-04-06T03:03:53;99761.13;;;-1.57;100.00
68193;BME280;55012;47.562;18.414;2023-04-06T03:06:19;99749.97;;;-1.59;100.00
68193;BME280;55012;47.562;18.414;2023-04-06T03:08:44;99748.38;;;-1.60;100.00
68193;BME280;55012;47.562;18.414;2023-04-06T03:11:10;99740.41;;;-1.60;100.00
68193;BME280;55012;47.562;18.414;2023-04-06T03:13:36;99733.78;;;-1.63;100.00
68193;BME280;55012;47.562;18.414;2023-04-06T03:16:04;99735.63;;;-1.63;100.00
68193;BME280;55012;47.562;18.414;2023-04-06T03:18:30;99732.44;;;-1.65;100.00
68193;BME280;55012;47.562;18.414;2023-04-06T03:20:55;99728.94;;;-1.66;100.00
68193;BME280;55012;47.562;18.414;2023-04-06T03:23:21;99727.63;;;-1.68;100.00
68193;BME280;55012;47.562;18.414;2023-04-06T03:25:46;99724.97;;;-1.68;100.00
68193;BME280;55012;47.562;18.414;2023-04-06T03:28:12;99724.41;;;-1.71;100.00
68193;BME280;55012;47.562;18.414;2023-04-06T03:30:37;99724.41;;;-1.71;100.00
68193;BME280;55012;47.562;18.414;2023-04-06T03:33:03;99711.88;;;-1.80;100.00
68193;BME280;55012;47.562;18.414;2023-04-06T03:35:28;99715.06;;;-1.78;100.00
68193;BME280;55012;47.562;18.414;2023-04-06T03:37:54;99710.50;;;-1.83;100.00
68193;BME280;55012;47.562;18.414;2023-04-06T03:40:20;99715.78;;;-1.88;100.00
68193;BME280;55012;47.562;18.414;2023-04-06T03:42:45;99711.19;;;-1.98;100.00
68193;BME280;55012;47.562;18.414;2023-04-06T03:45:11;99707.00;;;-2.15;100.00
68193;BME280;55012;47.562;18.414;2023-04-06T03:47:38;99705.28;;;-2.32;100.00
68193;BME280;55012;47.562;18.414;2023-04-06T03:50:04;99700.28;;;-2.50;100.00
68193;BME280;55012;47.562;18.414;2023-04-06T03:52:29;99694.78;;;-2.65;100.00
68193;BME280;55012;47.562;18.414;2023-04-06T03:54:55;99675.53;;;-2.83;100.00
68193;BME280;55012;47.562;18.414;2023-04-06T03:57:21;99666.41;;;-2.92;100.00
68193;BME280;55012;47.562;18.414;2023-04-06T03:59:46;99660.31;;;-2.92;100.00
68193;BME280;55012;47.562;18.414;2023-04-06T04:02:12;99641.97;;;-2.99;100.00
68193;BME280;55012;47.562;18.414;2023-04-06T04:04:37;99630.28;;;-3.03;100.00
68193;BME280;55012;47.562;18.414;2023-04-06T04:07:03;99608.50;;;-3.10;100.00
68193;BME280;55012;47.562;18.414;2023-04-06T04:09:28;99578.03;;;-3.13;100.00
68193;BME280;55012;47.562;18.414;2023-04-06T04:11:54;99529.84;;;-3.15;100.00
68193;BME280;55012;47.562;18.414;2023-04-06T04:14:20;99482.47;;;-3.16;100.00
68193;BME280;55012;47.562;18.414;2023-04-06T04:16:45;99406.00;;;-3.18;100.00
68193;BME280;55012;47.562;18.414;2023-04-06T04:19:10;99343.03;;;-3.16;100.00
68193;BME280;55012;47.562;18.414;2023-04-06T04:21:45;99272.91;;;-3.18;100.00
68193;BME280;55012;47.562;18.414;2023-04-06T04:24:11;99193.00;;;-3.20;100.00
68193;BME280;55012;47.562;18.414;2023-04-06T04:26:37;99121.84;;;-3.22;100.00
68193;BME280;55012;47.562;18.414;2023-04-06T04:29:03;99004.38;;;-3.16;100.00
68193;BME280;55012;47.562;18.414;2023-04-06T04:31:28;98906.25;;;-3.14;100.00
68193;BME280;55012;47.562;18.414;2023-04-06T04:33:54;98830.56;;;-3.15;100.00
68193;BME280;55012;47.562;18.414;2023-04-06T04:36:19;98758.09;;;-3.19;100.00
68193;BME280;55012;47.562;18.414;2023-04-06T04:38:45;98684.56;;;-3.22;100.00
68193;BME280;55012;47.562;18.414;2023-04-06T04:41:10;98632.72;;;-3.23;100.00
68193;BME280;55012;47.562;18.414;2023-04-06T04:43:36;98580.09;;;-3.25;100.00
68193;BME280;55012;47.562;18.414;2023-04-06T04:46:01;98540.69;;;-3.26;100.00
68193;BME280;55012;47.562;18.414;2023-04-06T04:48:27;98498.38;;;-3.26;100.00
68193;BME280;55012;47.562;18.414;2023-04-06T04:50:52;98454.19;;;-3.26;100.00
68193;BME280;55012;47.562;18.414;2023-04-06T04:53:20;98411.88;;;-3.26;100.00
68193;BME280;55012;47.562;18.414;2023-04-06T04:55:45;98376.94;;;-3.23;100.00
68193;BME280;55012;47.562;18.414;2023-04-06T04:58:11;98346.75;;;-3.17;100.00
68193;BME280;55012;47.562;18.414;2023-04-06T05:00:40;98333.81;;;-3.18;100.00
68193;BME280;55012;47.562;18.414;2023-04-06T05:03:06;98342.31;;;-3.21;100.00
68193;BME280;55012;47.562;18.414;2023-04-06T05:05:32;98333.03;;;-3.24;100.00
68193;BME280;55012;47.562;18.414;2023-04-06T05:07:57;98325.91;;;-3.23;100.00
68193;BME280;55012;47.562;18.414;2023-04-06T05:10:23;98311.38;;;-3.26;100.00
68193;BME280;55012;47.562;18.414;2023-04-06T05:12:48;98295.78;;;-3.27;100.00
68193;BME280;55012;47.562;18.414;2023-04-06T05:15:14;98286.28;;;-3.28;100.00
68193;BME280;55012;47.562;18.414;2023-04-06T05:17:39;98278.34;;;-3.28;100.00
68193;BME280;55012;47.562;18.414;2023-04-06T05:20:06;98270.72;;;-3.30;100.00
68193;BME280;55012;47.562;18.414;2023-04-06T05:22:32;98265.63;;;-3.26;100.00
68193;BME280;55012;47.562;18.414;2023-04-06T05:24:57;98256.91;;;-3.27;100.00
68193;BME280;55012;47.562;18.414;2023-04-06T05:27:23;98261.13;;;-3.26;100.00
68193;BME280;55012;47.562;18.414;2023-04-06T05:29:48;98261.69;;;-3.29;100.00
68193;BME280;55012;47.562;18.414;2023-04-06T05:32:14;98251.84;;;-3.23;100.00
68193;BME280;55012;47.562;18.414;2023-04-06T05:34:40;98243.31;;;-3.15;100.00
68193;BME280;55012;47.562;18.414;2023-04-06T05:37:05;98249.59;;;-3.06;100.00
68193;BME280;55012;47.562;18.414;2023-04-06T05:39:31;98241.59;;;-3.01;100.00
68193;BME280;55012;47.562;18.414;2023-04-06T05:41:56;98250.56;;;-2.97;100.00
68193;BME280;55012;47.562;18.414;2023-04-06T05:44:21;98254.19;;;-2.93;100.00
68193;BME280;55012;47.562;18.414;2023-04-06T05:46:47;98252.06;;;-2.91;100.00
68193;BME280;55012;47.562;18.414;2023-04-06T05:49:12;98255.16;;;-2.84;100.00
68193;BME280;55012;47.562;18.414;2023-04-06T05:51:38;98249.25;;;-2.75;100.00
68193;BME280;55012;47.562;18.414;2023-04-06T05:54:03;98248.97;;;-2.74;100.00
68193;BME280;55012;47.562;18.414;2023-04-06T05:56:29;98245.69;;;-2.66;100.00
68193;BME280;55012;47.562;18.414;2023-04-06T05:58:55;98252.81;;;-2.61;100.00
68193;BME280;55012;47.562;18.414;2023-04-06T06:01:21;98254.03;;;-2.53;100.00
68193;BME280;55012;47.562;18.414;2023-04-06T06:03:46;98245.47;;;-2.45;100.00
68193;BME280;55012;47.562;18.414;2023-04-06T06:06:11;98246.69;;;-2.38;100.00
68193;BME280;55012;47.562;18.414;2023-04-06T06:08:37;98253.38;;;-2.21;100.00
68193;BME280;55012;47.562;18.414;2023-04-06T06:11:02;98251.16;;;-2.14;100.00
68193;BME280;55012;47.562;18.414;2023-04-06T06:13:28;98275.94;;;-2.05;100.00
68193;BME280;55012;47.562;18.414;2023-04-06T06:15:53;98300.25;;;-1.98;100.00
68193;BME280;55012;47.562;18.414;2023-04-06T06:18:19;98322.16;;;-1.92;100.00
68193;BME280;55012;47.562;18.414;2023-04-06T06:20:45;98349.31;;;-1.82;100.00
68193;BME280;55012;47.562;18.414;2023-04-06T06:23:10;98388.00;;;-1.81;100.00
68193;BME280;55012;47.562;18.414;2023-04-06T06:25:36;98457.16;;;-1.77;100.00
68193;BME280;55012;47.562;18.414;2023-04-06T06:28:02;98504.84;;;-1.72;100.00
68193;BME280;55012;47.562;18.414;2023-04-06T06:30:27;98527.50;;;-1.61;100.00
68193;BME280;55012;47.562;18.414;2023-04-06T06:32:53;98562.59;;;-1.45;100.00
68193;BME280;55012;47.562;18.414;2023-04-06T06:35:18;98615.66;;;-1.45;100.00
68193;BME280;55012;47.562;18.414;2023-04-06T06:37:44;98649.88;;;-1.44;100.00
68193;BME280;55012;47.562;18.414;2023-04-06T06:40:10;98657.22;;;-1.35;100.00
68193;BME280;55012;47.562;18.414;2023-04-06T06:42:38;98682.31;;;-1.23;100.00
68193;BME280;55012;47.562;18.414;2023-04-06T06:45:04;98702.84;;;-1.09;100.00
68193;BME280;55012;47.562;18.414;2023-04-06T06:47:30;98716.84;;;-0.99;100.00
68193;BME280;55012;47.562;18.414;2023-04-06T06:49:55;98736.03;;;-0.83;100.00
68193;BME280;55012;47.562;18.414;2023-04-06T06:52:21;98743.56;;;-0.66;100.00
68193;BME280;55012;47.562;18.414;2023-04-06T06:54:48;98770.22;;;-0.52;100.00
68193;BME280;55012;47.562;18.414;2023-04-06T06:57:13;98799.72;;;-0.54;100.00
68193;BME280;55012;47.562;18.414;2023-04-06T06:59:39;98821.75;;;-0.48;100.00
68193;BME280;55012;47.562;18.414;2023-04-06T07:02:05;98838.66;;;-0.39;100.00
68193;BME280;55012;47.562;18.414;2023-04-06T07:04:30;98843.84;;;-0.29;100.00
68193;BME280;55012;47.562;18.414;2023-04-06T07:06:56;98857.47;;;-0.12;100.00
68193;BME280;55012;47.562;18.414;2023-04-06T07:09:21;98890.00;;;0.04;100.00
68193;BME280;55012;47.562;18.414;2023-04-06T07:11:47;98924.22;;;0.11;100.00
68193;BME280;55012;47.562;18.414;2023-04-06T07:14:14;98983.13;;;0.23;100.00
68193;BME280;55012;47.562;18.414;2023-04-06T07:16:40;99012.47;;;0.42;100.00
68193;BME280;55012;47.562;18.414;2023-04-06T07:19:06;99052.56;;;0.50;100.00
68193;BME280;55012;47.562;18.414;2023-04-06T07:21:32;99112.97;;;0.50;100.00
68193;BME280;55012;47.562;18.414;2023-04-06T07:23:57;99157.47;;;0.44;100.00
68193;BME280;55012;47.562;18.414;2023-04-06T07:26:23;99146.72;;;0.54;100.00
68193;BME280;55012;47.562;18.414;2023-04-06T07:28:48;99123.59;;;0.79;100.00
68193;BME280;55012;47.562;18.414;2023-04-06T07:31:15;99134.56;;;0.96;100.00
68193;BME280;55012;47.562;18.414;2023-04-06T07:33:41;99137.09;;;1.06;100.00
68193;BME280;55012;47.562;18.414;2023-04-06T07:36:06;99144.16;;;1.40;100.00
68193;BME280;55012;47.562;18.414;2023-04-06T07:38:32;99158.81;;;1.61;100.00
68193;BME280;55012;47.562;18.414;2023-04-06T07:40:57;99163.19;;;1.90;100.00
68193;BME280;55012;47.562;18.414;2023-04-06T07:43:23;99172.88;;;2.23;100.00
68193;BME280;55012;47.562;18.414;2023-04-06T07:45:48;99179.19;;;2.60;100.00
68193;BME280;55012;47.562;18.414;2023-04-06T07:48:14;99201.69;;;2.87;100.00
68193;BME280;55012;47.562;18.414;2023-04-06T07:50:40;99240.78;;;2.96;100.00
68193;BME280;55012;47.562;18.414;2023-04-06T07:53:05;99289.00;;;2.91;100.00
68193;BME280;55012;47.562;18.414;2023-04-06T07:55:31;99313.47;;;2.79;100.00
68193;BME280;55012;47.562;18.414;2023-04-06T07:57:56;99316.38;;;2.83;100.00
68193;BME280;55012;47.562;18.414;2023-04-06T08:00:22;99316.00;;;2.90;100.00
68193;BME280;55012;47.562;18.414;2023-04-06T08:02:47;99368.78;;;2.79;100.00
68193;BME280;55012;47.562;18.414;2023-04-06T08:05:13;99434.56;;;2.75;100.00
68193;BME280;55012;47.562;18.414;2023-04-06T08:07:38;99458.97;;;2.68;100.00
68193;BME280;55012;47.562;18.414;2023-04-06T08:10:04;99465.03;;;2.74;100.00
68193;BME280;55012;47.562;18.414;2023-04-06T08:12:30;99458.97;;;2.87;100.00
68193;BME280;55012;47.562;18.414;2023-04-06T08:14:55;99452.97;;;2.95;100.00
68193;BME280;55012;47.562;18.414;2023-04-06T08:17:22;99506.38;;;3.00;100.00
68193;BME280;55012;47.562;18.414;2023-04-06T08:19:47;99504.56;;;2.96;100.00
68193;BME280;55012;47.562;18.414;2023-04-06T08:22:13;99487.38;;;3.02;100.00
68193;BME280;55012;47.562;18.414;2023-04-06T08:24:38;99543.50;;;3.02;100.00
68193;BME280;55012;47.562;18.414;2023-04-06T08:27:04;99515.38;;;3.04;100.00
68193;BME280;55012;47.562;18.414;2023-04-06T08:29:29;99507.66;;;3.03;100.00
68193;BME280;55012;47.562;18.414;2023-04-06T08:31:55;99525.22;;;3.09;100.00
68193;BME280;55012;47.562;18.414;2023-04-06T08:34:21;99533.59;;;3.21;100.00
68193;BME280;55012;47.562;18.414;2023-04-06T08:36:46;99516.84;;;3.34;100.00
68193;BME280;55012;47.562;18.414;2023-04-06T08:39:12;99505.13;;;3.49;100.00
68193;BME280;55012;47.562;18.414;2023-04-06T08:41:38;99568.44;;;3.73;100.00
68193;BME280;55012;47.562;18.414;2023-04-06T08:44:06;99527.72;;;3.76;100.00
68193;BME280;55012;47.562;18.414;2023-04-06T08:46:32;99536.25;;;3.78;100.00
68193;BME280;55012;47.562;18.414;2023-04-06T08:48:59;99531.19;;;3.76;100.00
68193;BME280;55012;47.562;18.414;2023-04-06T08:51:25;99529.06;;;3.92;100.00
68193;BME280;55012;47.562;18.414;2023-04-06T08:53:55;99531.56;;;4.02;100.00
68193;BME280;55012;47.562;18.414;2023-04-06T08:56:25;99532.88;;;4.18;100.00
68193;BME280;55012;47.562;18.414;2023-04-06T08:58:52;99542.38;;;4.11;100.00
68193;BME280;55012;47.562;18.414;2023-04-06T09:01:21;99522.94;;;4.05;100.00
68193;BME280;55012;47.562;18.414;2023-04-06T09:03:49;99523.34;;;4.12;100.00
68193;BME280;55012;47.562;18.414;2023-04-06T09:06:16;99519.56;;;4.13;100.00
68193;BME280;55012;47.562;18.414;2023-04-06T09:08:42;99574.63;;;4.06;100.00
68193;BME280;55012;47.562;18.414;2023-04-06T09:11:08;99560.34;;;4.10;100.00
68193;BME280;55012;47.562;18.414;2023-04-06T09:13:49;99555.69;;;4.30;100.00
68193;BME280;55012;47.562;18.414;2023-04-06T09:16:15;99551.06;;;4.35;100.00
68193;BME280;55012;47.562;18.414;2023-04-06T09:18:41;99578.63;;;4.36;100.00
68193;BME280;55012;47.562;18.414;2023-04-06T09:21:08;99545.03;;;4.43;100.00
68193;BME280;55012;47.562;18.414;2023-04-06T09:23:34;99599.13;;;4.73;100.00
68193;BME280;55012;47.562;18.414;2023-04-06T09:26:13;99600.81;;;4.69;100.00
68193;BME280;55012;47.562;18.414;2023-04-06T09:28:56;99627.19;;;4.62;100.00
68193;BME280;55012;47.562;18.414;2023-04-06T09:31:30;99594.63;;;4.55;100.00
68193;BME280;55012;47.562;18.414;2023-04-06T09:33:58;99579.66;;;4.67;100.00
68193;BME280;55012;47.562;18.414;2023-04-06T09:36:34;99599.63;;;4.75;100.00
68193;BME280;55012;47.562;18.414;2023-04-06T09:39:02;99606.97;;;4.83;100.00
68193;BME280;55012;47.562;18.414;2023-04-06T09:41:29;99691.28;;;4.91;100.00
68193;BME280;55012;47.562;18.414;2023-04-06T09:44:09;99675.38;;;4.94;100.00
68193;BME280;55012;47.562;18.414;2023-04-06T09:46:42;99653.94;;;4.81;100.00
68193;BME280;55012;47.562;18.414;2023-04-06T09:49:08;99691.06;;;4.73;100.00
68193;BME280;55012;47.562;18.414;2023-04-06T09:51:38;99639.41;;;4.68;100.00
68193;BME280;55012;47.562;18.414;2023-04-06T09:54:06;99657.88;;;4.69;100.00
68193;BME280;55012;47.562;18.414;2023-04-06T09:56:45;99635.47;;;4.93;100.00
68193;BME280;55012;47.562;18.414;2023-04-06T09:59:24;99660.97;;;5.04;100.00
68193;BME280;55012;47.562;18.414;2023-04-06T10:01:51;99658.59;;;5.02;100.00
68193;BME280;55012;47.562;18.414;2023-04-06T10:04:41;99689.50;;;5.00;100.00
68193;BME280;55012;47.562;18.414;2023-04-06T10:07:09;99655.63;;;5.04;100.00
68193;BME280;55012;47.562;18.414;2023-04-06T10:09:37;99690.50;;;5.18;100.00
68193;BME280;55012;47.562;18.414;2023-04-06T10:12:06;99679.84;;;5.13;100.00
68193;BME280;55012;47.562;18.414;2023-04-06T10:14:33;99663.59;;;5.23;100.00
68193;BME280;55012;47.562;18.414;2023-04-06T10:17:02;99668.03;;;5.41;100.00
68193;BME280;55012;47.562;18.414;2023-04-06T10:19:32;99702.09;;;5.54;100.00
68193;BME280;55012;47.562;18.414;2023-04-06T10:21:59;99691.88;;;5.56;100.00
68193;BME280;55012;47.562;18.414;2023-04-06T10:24:27;99673.59;;;5.58;100.00
68193;BME280;55012;47.562;18.414;2023-04-06T10:27:01;99690.09;;;5.66;100.00
68193;BME280;55012;47.562;18.414;2023-04-06T10:29:27;99726.81;;;5.79;100.00
68193;BME280;55012;47.562;18.414;2023-04-06T10:31:52;99682.53;;;5.68;100.00
68193;BME280;55012;47.562;18.414;2023-04-06T10:34:18;99708.88;;;5.52;100.00
68193;BME280;55012;47.562;18.414;2023-04-06T10:36:43;99676.78;;;5.47;100.00
68193;BME280;55012;47.562;18.414;2023-04-06T10:39:09;99683.75;;;5.48;100.00
68193;BME280;55012;47.562;18.414;2023-04-06T10:41:45;99655.91;;;5.44;100.00
68193;BME280;55012;47.562;18.414;2023-04-06T10:44:23;99663.34;;;5.60;100.00
68193;BME280;55012;47.562;18.414;2023-04-06T10:46:53;99727.75;;;5.60;100.00
68193;BME280;55012;47.562;18.414;2023-04-06T10:49:19;99623.53;;;5.40;100.00
68193;BME280;55012;47.562;18.414;2023-04-06T10:51:51;99622.53;;;5.50;100.00
68193;BME280;55012;47.562;18.414;2023-04-06T10:54:17;99649.25;;;5.55;100.00
68193;BME280;55012;47.562;18.414;2023-04-06T10:56:43;99591.81;;;5.56;100.00
68193;BME280;55012;47.562;18.414;2023-04-06T10:59:09;99650.53;;;5.57;100.00
68193;BME280;55012;47.562;18.414;2023-04-06T11:01:34;99586.72;;;5.54;100.00
68193;BME280;55012;47.562;18.414;2023-04-06T11:04:00;99594.66;;;5.59;100.00
68193;BME280;55012;47.562;18.414;2023-04-06T11:06:27;99568.88;;;5.72;100.00
68193;BME280;55012;47.562;18.414;2023-04-06T11:08:54;99585.44;;;5.88;100.00
68193;BME280;55012;47.562;18.414;2023-04-06T11:11:21;99622.69;;;5.53;100.00
68193;BME280;55012;47.562;18.414;2023-04-06T11:13:49;99607.22;;;5.36;100.00
68193;BME280;55012;47.562;18.414;2023-04-06T11:19:02;99589.13;;;5.56;100.00
68193;BME280;55012;47.562;18.414;2023-04-06T11:24:17;99527.09;;;5.80;100.00
68193;BME280;55012;47.562;18.414;2023-04-06T11:26:53;99527.69;;;5.77;100.00
68193;BME280;55012;47.562;18.414;2023-04-06T11:29:21;99534.00;;;5.72;100.00
68193;BME280;55012;47.562;18.414;2023-04-06T11:31:48;99599.69;;;5.75;100.00
68193;BME280;55012;47.562;18.414;2023-04-06T11:34:22;99517.31;;;5.61;100.00
68193;BME280;55012;47.562;18.414;2023-04-06T11:36:49;99513.38;;;5.81;100.00
68193;BME280;55012;47.562;18.414;2023-04-06T11:39:22;99535.72;;;5.90;100.00
68193;BME280;55012;47.562;18.414;2023-04-06T11:42:07;99491.56;;;5.83;100.00
68193;BME280;55012;47.562;18.414;2023-04-06T11:47:03;99478.50;;;5.90;100.00
68193;BME280;55012;47.562;18.414;2023-04-06T11:49:30;99498.44;;;6.20;100.00
68193;BME280;55012;47.562;18.414;2023-04-06T11:51:57;99442.03;;;6.20;100.00
68193;BME280;55012;47.562;18.414;2023-04-06T11:54:36;99452.22;;;6.40;100.00
68193;BME280;55012;47.562;18.414;2023-04-06T11:57:05;99406.88;;;6.56;100.00
68193;BME280;55012;47.562;18.414;2023-04-06T11:59:32;99407.22;;;6.55;100.00
68193;BME280;55012;47.562;18.414;2023-04-06T12:01:58;99418.41;;;6.48;100.00
68193;BME280;55012;47.562;18.414;2023-04-06T12:04:23;99385.06;;;6.58;100.00
68193;BME280;55012;47.562;18.414;2023-04-06T12:06:49;99375.13;;;6.67;100.00
68193;BME280;55012;47.562;18.414;2023-04-06T12:09:15;99376.69;;;6.94;100.00
68193;BME280;55012;47.562;18.414;2023-04-06T12:11:42;99355.66;;;7.04;100.00
68193;BME280;55012;47.562;18.414;2023-04-06T12:14:08;99408.34;;;7.06;100.00
68193;BME280;55012;47.562;18.414;2023-04-06T12:16:34;99357.41;;;6.92;100.00
68193;BME280;55012;47.562;18.414;2023-04-06T12:19:00;99308.06;;;6.88;100.00
68193;BME280;55012;47.562;18.414;2023-04-06T12:21:35;99311.22;;;6.98;100.00
68193;BME280;55012;47.562;18.414;2023-04-06T12:24:03;99321.91;;;7.24;100.00
68193;BME280;55012;47.562;18.414;2023-04-06T12:26:29;99314.88;;;7.49;100.00
68193;BME280;55012;47.562;18.414;2023-04-06T12:28:55;99366.16;;;7.53;100.00
68193;BME280;55012;47.562;18.414;2023-04-06T12:31:21;99311.00;;;7.29;100.00
68193;BME280;55012;47.562;18.414;2023-04-06T12:33:48;99336.13;;;7.33;100.00
68193;BME280;55012;47.562;18.414;2023-04-06T12:36:15;99335.06;;;7.17;100.00
68193;BME280;55012;47.562;18.414;2023-04-06T12:38:41;99315.06;;;7.36;100.00
68193;BME280;55012;47.562;18.414;2023-04-06T12:41:07;99304.03;;;7.28;100.00
68193;BME280;55012;47.562;18.414;2023-04-06T12:43:33;99344.88;;;7.30;100.00
68193;BME280;55012;47.562;18.414;2023-04-06T12:45:59;99285.75;;;6.96;100.00
68193;BME280;55012;47.562;18.414;2023-04-06T12:48:25;99285.28;;;6.85;100.00
68193;BME280;55012;47.562;18.414;2023-04-06T12:50:58;99308.69;;;6.93;100.00